Pushkin, Russia
Current Conditions -  °F | °C
As of 5:00 AM on Monday 22 Dec 2014 (Local Time) from ULLI Reporting Station
Snow Showers Snow Showers  
Wind Chill: 21°   Ceiling: 1900
Heat Index: 28°   Visibility: 0.81mi
Dew Point: 28°   Wind: 7mph
Humidity: 100%   Direction: 260°W
Pressure: 29.35"   Gusts: NA
Location:  59.72°N, 30.42°E
Report Text: ULLI 220200Z 26003MPS 1300 R28L/P2000D SHSN SCT008 BKN019CBOVC046 M02/M02 Q0994 28550340 78////// TEMPO 0700 +SHSN VV004
Loading
Personal Weather Stations






























Interactive Weather Map New forecast layout! Learn more

10-Day Weather Forecast

Advertisements
Track Severe Weather on mobile